createdAt,value
2017-12-26T00:02:36.412Z,64.69
2017-12-26T00:32:35.044Z,65.31
2017-12-26T00:47:36.483Z,65.59
2017-12-26T01:02:34.645Z,65.56
2017-12-26T01:17:33.785Z,65.80
2017-12-26T01:32:34.780Z,65.66
2017-12-26T01:47:34.697Z,66.55
2017-12-26T02:02:34.362Z,66.47
2017-12-26T02:17:33.996Z,66.98
2017-12-26T02:32:33.504Z,66.58
2017-12-26T02:47:33.851Z,66.59
2017-12-26T03:02:34.556Z,67.20
2017-12-26T03:17:37.201Z,66.96
2017-12-26T03:32:34.130Z,67.28
2017-12-26T03:47:37.120Z,67.95
2017-12-26T04:02:34.714Z,67.81
2017-12-26T04:17:36.995Z,67.76
2017-12-26T04:32:34.568Z,67.78
2017-12-26T04:47:34.371Z,68.04
2017-12-26T05:02:34.914Z,68.75
2017-12-26T05:17:34.820Z,68.67
2017-12-26T05:32:34.613Z,68.91
2017-12-26T05:47:34.537Z,68.58
2017-12-26T06:02:34.171Z,68.23
2017-12-26T06:17:33.880Z,68.29
2017-12-26T06:32:35.011Z,67.87
2017-12-26T06:47:36.452Z,64.37
2017-12-26T07:17:34.230Z,59.05
2017-12-26T07:32:34.165Z,56.78
2017-12-26T07:47:34.217Z,54.33
2017-12-26T08:02:34.526Z,52.30
2017-12-26T08:17:34.498Z,48.53
2017-12-26T08:32:34.248Z,46.12
2017-12-26T08:47:34.167Z,45.56
2017-12-26T09:02:36.566Z,44.40
2017-12-26T09:17:34.503Z,43.77
2017-12-26T09:32:34.442Z,42.33
2017-12-26T09:47:35.170Z,43.78
2017-12-26T10:02:33.868Z,43.14
2017-12-26T10:17:34.279Z,42.70
2017-12-26T10:32:34.933Z,43.90
2017-12-26T10:47:35.373Z,44.91
2017-12-26T11:02:36.109Z,44.54
2017-12-26T11:17:35.209Z,44.45
2017-12-26T11:32:34.075Z,44.86
2017-12-26T11:47:34.576Z,46.51
2017-12-26T12:02:34.731Z,49.30
2017-12-26T12:17:34.170Z,49.49
2017-12-26T12:32:37.164Z,48.77
2017-12-26T12:47:36.534Z,48.75
2017-12-26T13:02:34.562Z,49.92
2017-12-26T13:17:34.417Z,52.12
2017-12-26T13:32:34.384Z,52.35
2017-12-26T13:47:34.794Z,52.26
2017-12-26T14:02:36.725Z,52.44
2017-12-26T14:17:34.752Z,52.51
2017-12-26T14:32:34.590Z,53.45
2017-12-26T14:47:35.054Z,54.38
2017-12-26T15:02:37.027Z,55.25
2017-12-26T15:17:35.958Z,56.28
2017-12-26T15:32:34.920Z,57.57
2017-12-26T15:47:34.224Z,58.71
2017-12-26T16:02:36.354Z,59.54
2017-12-26T16:17:37.139Z,60.66
2017-12-26T16:32:37.087Z,61.40
2017-12-26T16:47:34.478Z,61.53
2017-12-26T17:02:34.639Z,62.15
2017-12-26T17:17:36.330Z,62.69
2017-12-26T17:32:36.314Z,63.03
2017-12-26T19:47:34.230Z,66.06
2017-12-26T20:02:34.409Z,65.86
2017-12-26T21:47:34.873Z,67.15
2017-12-26T22:02:34.842Z,67.51
2017-12-26T22:17:34.574Z,67.91
2017-12-26T22:32:34.738Z,68.30
2017-12-26T22:47:35.084Z,68.48
2017-12-26T23:02:35.025Z,68.55
2017-12-26T23:32:40.486Z,68.65
2017-12-26T23:47:39.106Z,68.89
